createdAt,value
2023-01-28T00:01:29.920Z,99749.53
2023-01-28T00:03:56.805Z,99740.00
2023-01-28T00:06:23.661Z,99755.31
2023-01-28T00:08:51.125Z,99748.53
2023-01-28T00:11:18.068Z,99743.81
2023-01-28T00:13:44.987Z,99754.72
2023-01-28T00:16:11.968Z,99749.78
2023-01-28T00:18:38.899Z,99741.63
2023-01-28T00:21:11.942Z,99746.19
2023-01-28T00:23:41.416Z,99755.31
2023-01-28T00:26:12.599Z,99747.94
2023-01-28T00:28:43.219Z,99750.72
2023-01-28T00:31:18.276Z,99747.34
2023-01-28T00:33:48.491Z,99742.59
2023-01-28T00:36:16.927Z,99748.16
2023-01-28T00:38:44.291Z,99745.97
2023-01-28T00:41:16.441Z,99745.16
2023-01-28T00:43:45.144Z,99742.59
2023-01-28T00:46:12.746Z,99739.59
2023-01-28T00:48:40.985Z,99740.41
2023-01-28T00:51:09.122Z,99736.66
2023-01-28T00:53:37.329Z,99742.81
2023-01-28T00:56:06.108Z,99736.47
2023-01-28T00:58:33.367Z,99738.81
2023-01-28T01:01:17.555Z,99736.06
2023-01-28T01:03:45.082Z,99738.22
2023-01-28T01:06:13.748Z,99737.81
2023-01-28T01:08:41.815Z,99734.66
2023-01-28T01:11:11.324Z,99737.63
2023-01-28T01:13:39.690Z,99740.59
2023-01-28T01:16:16.071Z,99738.59
2023-01-28T01:18:43.481Z,99740.19
2023-01-28T01:21:18.705Z,99750.31
2023-01-28T01:23:46.507Z,99742.41
2023-01-28T01:26:15.592Z,99751.50
2023-01-28T01:28:45.207Z,99743.75
2023-01-28T01:31:16.760Z,99760.84
2023-01-28T01:33:45.713Z,99757.84
2023-01-28T01:36:15.054Z,99747.31
2023-01-28T01:38:45.528Z,99762.44
2023-01-28T01:41:30.613Z,99757.47
2023-01-28T01:44:00.828Z,99752.09
2023-01-28T01:46:48.899Z,99758.25
2023-01-28T01:52:22.226Z,99759.47
2023-01-28T01:54:53.922Z,99761.63
2023-01-28T01:57:29.962Z,99757.25
2023-01-28T02:00:01.862Z,99763.63
2023-01-28T02:02:28.815Z,99765.78
2023-01-28T02:05:01.319Z,99759.25
2023-01-28T02:07:29.143Z,99755.28
2023-01-28T02:10:26.254Z,99749.75
2023-01-28T02:12:57.562Z,99746.94
2023-01-28T02:15:31.175Z,99756.66
2023-01-28T02:17:58.717Z,99754.91
2023-01-28T02:20:51.255Z,99759.22
2023-01-28T02:23:27.214Z,99756.06
2023-01-28T02:26:18.181Z,99760.44
2023-01-28T02:29:10.341Z,99757.63
2023-01-28T02:32:04.859Z,99767.41
2023-01-28T02:34:31.728Z,99756.09
2023-01-28T02:37:01.717Z,99760.88
2023-01-28T02:39:38.293Z,99756.72
2023-01-28T02:42:32.226Z,99757.28
2023-01-28T02:44:59.838Z,99755.50
2023-01-28T02:47:27.027Z,99752.13
2023-01-28T02:49:59.259Z,99749.53
2023-01-28T02:52:36.676Z,99755.09
2023-01-28T02:55:16.607Z,99760.66
2023-01-28T02:57:56.859Z,99758.47
2023-01-28T03:00:40.010Z,99760.47
2023-01-28T03:03:07.686Z,99755.31
2023-01-28T03:06:08.264Z,99761.03
2023-01-28T03:08:39.328Z,99758.69
2023-01-28T03:11:06.969Z,99759.47
2023-01-28T03:13:37.460Z,99755.09
2023-01-28T03:16:04.809Z,99757.66
2023-01-28T03:18:53.220Z,99752.31
2023-01-28T03:21:33.081Z,99759.69
2023-01-28T03:24:13.391Z,99772.38
2023-01-28T03:27:10.365Z,99765.81
2023-01-28T03:29:42.033Z,99773.00
2023-01-28T03:32:13.299Z,99761.50
2023-01-28T03:34:42.311Z,99769.81
2023-01-28T03:37:09.674Z,99764.25
2023-01-28T03:39:50.227Z,99767.63
2023-01-28T03:42:18.162Z,99775.16
2023-01-28T03:45:05.506Z,99772.78
2023-01-28T03:47:57.642Z,99782.72
2023-01-28T03:50:24.854Z,99776.97
2023-01-28T03:52:56.699Z,99779.38
2023-01-28T03:55:31.457Z,99776.78
2023-01-28T03:57:58.724Z,99775.78
2023-01-28T04:00:25.973Z,99770.44
2023-01-28T04:02:56.454Z,99780.94
2023-01-28T04:05:25.002Z,99780.16
2023-01-28T04:07:56.957Z,99776.38
2023-01-28T04:10:50.005Z,99779.19
2023-01-28T04:13:30.002Z,99784.91
2023-01-28T04:16:00.921Z,99777.16
2023-01-28T04:18:28.050Z,99781.94
2023-01-28T04:20:58.284Z,99780.00
2023-01-28T04:23:25.824Z,99780.38
2023-01-28T04:25:52.733Z,99786.94
2023-01-28T04:28:21.477Z,99788.53
2023-01-28T04:30:48.790Z,99787.50
2023-01-28T04:33:22.284Z,99788.31
2023-01-28T04:36:01.855Z,99781.78
2023-01-28T04:38:54.298Z,99781.41
2023-01-28T04:41:35.991Z,99787.75
2023-01-28T04:44:13.136Z,99792.31
2023-01-28T04:47:07.089Z,99791.13
2023-01-28T04:49:58.269Z,99791.72
2023-01-28T04:52:42.077Z,99794.31
2023-01-28T04:58:11.480Z,99806.41
2023-01-28T05:00:39.106Z,99797.44
2023-01-28T05:03:06.148Z,99805.41
2023-01-28T05:05:33.330Z,99799.84
2023-01-28T05:08:17.019Z,99806.97
2023-01-28T05:10:46.401Z,99804.22
2023-01-28T05:13:13.482Z,99804.41
2023-01-28T05:15:40.715Z,99799.84
2023-01-28T05:18:08.157Z,99799.25
2023-01-28T05:20:41.164Z,99803.63
2023-01-28T05:23:08.077Z,99802.81
2023-01-28T05:25:53.343Z,99805.19
2023-01-28T05:28:21.179Z,99818.88
2023-01-28T05:30:48.971Z,99812.13
2023-01-28T05:33:16.104Z,99811.75
2023-01-28T05:35:44.301Z,99816.91
2023-01-28T05:38:14.238Z,99807.78
2023-01-28T05:40:45.313Z,99820.47
2023-01-28T05:43:12.326Z,99818.47
2023-01-28T05:45:46.897Z,99818.88
2023-01-28T05:48:37.580Z,99810.34
2023-01-28T05:51:16.359Z,99818.88
2023-01-28T05:53:46.611Z,99824.63
2023-01-28T05:59:07.348Z,99823.44
2023-01-28T06:01:59.485Z,99823.88
2023-01-28T06:04:28.385Z,99821.28
2023-01-28T06:06:55.478Z,99820.47
2023-01-28T06:09:22.353Z,99818.31
2023-01-28T06:11:52.280Z,99824.03
2023-01-28T06:14:20.019Z,99826.44
2023-01-28T06:17:09.218Z,99829.97
2023-01-28T06:19:59.577Z,99828.38
2023-01-28T06:22:27.343Z,99829.00
2023-01-28T06:24:54.157Z,99834.72
2023-01-28T06:27:21.865Z,99834.31
2023-01-28T06:29:49.390Z,99826.78
2023-01-28T06:32:16.889Z,99828.75
2023-01-28T06:34:43.778Z,99840.25
2023-01-28T06:40:13.724Z,99846.81
2023-01-28T06:42:40.878Z,99851.38
2023-01-28T06:45:08.233Z,99859.31
2023-01-28T06:47:35.421Z,99861.31
2023-01-28T06:50:02.209Z,99864.66
2023-01-28T06:52:29.182Z,99866.28
2023-01-28T06:54:56.475Z,99873.00
2023-01-28T06:57:23.342Z,99869.44
2023-01-28T06:59:52.834Z,99863.47
2023-01-28T07:02:20.050Z,99876.16
2023-01-28T07:04:46.812Z,99873.16
2023-01-28T07:07:13.780Z,99881.13
2023-01-28T07:09:40.604Z,99884.66
2023-01-28T07:12:32.321Z,99876.72
2023-01-28T07:15:00.369Z,99875.72
2023-01-28T07:17:27.580Z,99868.38
2023-01-28T07:19:54.503Z,99877.94
2023-01-28T07:22:47.432Z,99873.94
2023-01-28T07:25:15.739Z,99872.97
2023-01-28T07:27:50.776Z,99877.13
2023-01-28T07:30:21.612Z,99872.97
2023-01-28T07:32:54.261Z,99875.34
2023-01-28T07:35:23.227Z,99877.94
2023-01-28T07:37:58.359Z,99882.28
2023-01-28T07:40:27.444Z,99881.91
2023-01-28T07:42:55.193Z,99876.91
2023-01-28T07:45:24.488Z,99879.09
2023-01-28T07:53:45.511Z,99877.50
2023-01-28T07:56:13.986Z,99881.47
2023-01-28T07:58:40.868Z,99888.00
2023-01-28T08:01:09.359Z,99888.38
2023-01-28T08:03:36.221Z,99903.06
2023-01-28T08:06:05.340Z,99898.50
2023-01-28T08:08:32.164Z,99896.50
2023-01-28T08:11:10.435Z,99903.06
2023-01-28T08:13:37.640Z,99907.41
2023-01-28T08:16:09.489Z,99915.16
2023-01-28T08:18:39.909Z,99915.16
2023-01-28T08:21:07.415Z,99913.16
2023-01-28T08:23:34.889Z,99919.53
2023-01-28T08:26:03.549Z,99922.91
2023-01-28T08:28:30.895Z,99923.50
2023-01-28T08:31:00.720Z,99924.31
2023-01-28T08:36:44.062Z,99918.31
2023-01-28T08:39:10.898Z,99937.41
2023-01-28T08:41:37.862Z,99932.22
2023-01-28T08:44:06.410Z,99941.38
2023-01-28T08:46:33.907Z,99937.00
2023-01-28T08:49:00.714Z,99937.38
2023-01-28T08:51:28.575Z,99942.31
2023-01-28T08:53:55.345Z,99941.91
2023-01-28T08:56:22.289Z,99937.72
2023-01-28T08:58:50.395Z,99940.50
2023-01-28T09:01:17.919Z,99934.34
2023-01-28T09:03:46.442Z,99946.25
2023-01-28T09:06:14.126Z,99952.38
2023-01-28T09:08:42.434Z,99945.63
2023-01-28T09:11:09.901Z,99944.25
2023-01-28T09:13:37.438Z,99952.75
2023-01-28T09:16:06.134Z,99954.00
2023-01-28T09:18:33.079Z,99952.75
2023-01-28T09:21:00.114Z,99957.53
2023-01-28T09:23:27.968Z,99958.53
2023-01-28T09:26:01.105Z,99955.72
2023-01-28T09:28:29.227Z,99957.13
2023-01-28T09:31:08.014Z,99964.31
2023-01-28T09:33:39.181Z,99963.91
2023-01-28T09:36:11.596Z,99960.88
2023-01-28T09:38:39.992Z,99964.28
2023-01-28T09:41:26.137Z,99969.06
2023-01-28T09:44:16.144Z,99967.66
2023-01-28T09:46:47.779Z,99978.56
2023-01-28T09:49:28.292Z,99976.59
2023-01-28T09:54:51.481Z,99966.84
2023-01-28T09:57:53.695Z,99970.78
2023-01-28T10:00:31.583Z,99967.63
2023-01-28T10:03:30.548Z,99967.63
2023-01-28T10:06:06.645Z,99970.19
2023-01-28T10:08:45.323Z,99967.63
2023-01-28T10:11:29.957Z,99967.63
2023-01-28T10:14:10.421Z,99967.41
2023-01-28T10:16:45.467Z,99956.28
2023-01-28T10:19:32.844Z,99952.69
2023-01-28T10:22:07.863Z,99947.31
2023-01-28T10:24:38.055Z,99948.47
2023-01-28T10:27:32.509Z,99956.81
2023-01-28T10:30:17.167Z,99956.22
2023-01-28T10:32:56.426Z,99952.88
2023-01-28T10:35:24.431Z,99951.63
2023-01-28T10:37:58.570Z,99958.41
2023-01-28T10:40:26.458Z,99957.81
2023-01-28T10:42:53.292Z,99961.97
2023-01-28T10:45:29.641Z,99962.19
2023-01-28T10:48:21.267Z,99958.41
2023-01-28T10:50:59.488Z,99959.97
2023-01-28T10:53:41.777Z,99961.00
2023-01-28T10:56:14.666Z,99948.47
2023-01-28T10:58:57.443Z,99957.03
2023-01-28T11:01:26.522Z,99954.59
2023-01-28T11:03:58.838Z,99952.88
2023-01-28T11:06:29.219Z,99957.59
2023-01-28T11:08:57.159Z,99950.84
2023-01-28T11:11:29.675Z,99956.63
2023-01-28T11:13:58.143Z,99951.63
2023-01-28T11:16:29.464Z,99950.06
2023-01-28T11:19:05.302Z,99955.00
2023-01-28T11:21:34.894Z,99957.81
2023-01-28T11:24:14.732Z,99953.25
2023-01-28T11:26:50.522Z,99953.47
2023-01-28T11:29:34.163Z,99953.66
2023-01-28T11:32:27.076Z,99954.63
2023-01-28T11:34:57.151Z,99954.25
2023-01-28T11:37:30.484Z,99960.81
2023-01-28T11:40:20.759Z,99959.00
2023-01-28T11:42:51.625Z,99960.41
2023-01-28T11:45:27.623Z,99957.19
2023-01-28T11:51:07.707Z,99963.13
2023-01-28T11:53:46.875Z,99953.63
2023-01-28T11:56:37.517Z,99956.78
2023-01-28T11:59:17.832Z,99951.59
2023-01-28T12:02:52.590Z,99959.31
2023-01-28T12:05:38.604Z,99958.16
2023-01-28T12:08:12.270Z,99952.97
2023-01-28T12:10:53.653Z,99957.38
2023-01-28T12:13:49.559Z,99954.78
2023-01-28T12:16:39.710Z,99951.56
2023-01-28T12:19:45.476Z,99953.72
2023-01-28T12:22:31.024Z,99955.53
2023-01-28T12:25:16.277Z,99949.50
2023-01-28T12:28:18.328Z,99954.91
2023-01-28T12:31:19.307Z,99959.84
2023-01-28T12:34:20.020Z,99962.25
2023-01-28T12:37:06.661Z,99968.78
2023-01-28T12:40:01.539Z,99962.88
2023-01-28T12:42:34.916Z,99967.59
2023-01-28T12:45:33.798Z,99966.81
2023-01-28T12:48:15.648Z,99969.47
2023-01-28T12:51:00.188Z,99976.44
2023-01-28T12:53:40.526Z,99962.56
2023-01-28T12:56:32.153Z,99970.38
2023-01-28T12:59:09.359Z,99964.19
2023-01-28T13:01:51.342Z,99968.34
2023-01-28T13:04:41.482Z,99967.97
2023-01-28T13:07:22.168Z,99971.16
2023-01-28T13:13:34.649Z,99974.53
2023-01-28T13:16:03.219Z,99970.56
2023-01-28T13:18:33.994Z,99978.91
2023-01-28T13:21:04.917Z,99978.91
2023-01-28T13:23:31.657Z,99984.50
2023-01-28T13:26:24.830Z,99987.88
2023-01-28T13:28:53.641Z,99983.94
2023-01-28T13:31:24.607Z,99988.28
2023-01-28T13:33:54.094Z,99984.91
2023-01-28T13:36:41.475Z,99987.50
2023-01-28T13:39:19.654Z,99991.25
2023-01-28T13:41:54.456Z,99996.88
2023-01-28T13:44:31.353Z,99996.28
2023-01-28T13:47:09.677Z,99997.69
2023-01-28T13:49:44.595Z,100000.28
2023-01-28T13:55:44.666Z,100012.19
2023-01-28T13:58:41.747Z,100005.78
2023-01-28T14:01:20.926Z,100010.56
2023-01-28T14:04:16.828Z,100011.94
2023-01-28T14:10:12.624Z,100011.94
2023-01-28T14:12:52.559Z,100008.56
2023-01-28T14:15:33.646Z,100010.38
2023-01-28T14:18:01.405Z,100018.34
2023-01-28T14:20:38.572Z,100011.38
2023-01-28T14:23:14.913Z,100010.38
2023-01-28T14:25:48.659Z,100019.09
2023-01-28T14:28:27.589Z,100017.31
2023-01-28T14:31:03.542Z,100026.06
2023-01-28T14:33:33.545Z,100022.28
2023-01-28T14:36:01.058Z,100033.25
2023-01-28T14:38:30.010Z,100021.72
2023-01-28T14:40:58.238Z,100027.69
2023-01-28T14:43:27.372Z,100028.69
2023-01-28T14:46:06.257Z,100030.66
2023-01-28T14:48:46.525Z,100024.72
2023-01-28T14:51:39.729Z,100032.88
2023-01-28T14:54:48.801Z,100036.47
2023-01-28T14:57:32.568Z,100045.44
2023-01-28T15:00:27.929Z,100040.06
2023-01-28T15:02:56.907Z,100044.41
2023-01-28T15:05:28.582Z,100047.81
2023-01-28T15:07:56.386Z,100042.44
2023-01-28T15:10:30.073Z,100049.41
2023-01-28T15:13:19.680Z,100054.75
2023-01-28T15:15:49.570Z,100050.41
2023-01-28T15:18:20.096Z,100056.78
2023-01-28T15:20:50.225Z,100065.94
2023-01-28T15:23:21.502Z,100070.88
2023-01-28T15:25:48.671Z,100080.81
2023-01-28T15:28:36.758Z,100077.22
2023-01-28T15:31:05.413Z,100079.63
2023-01-28T15:33:32.399Z,100079.41
2023-01-28T15:36:00.023Z,100087.38
2023-01-28T15:38:29.089Z,100092.31
2023-01-28T15:40:59.068Z,100090.00
2023-01-28T15:46:23.287Z,100099.31
2023-01-28T15:49:06.630Z,100107.47
2023-01-28T15:51:34.598Z,100106.69
2023-01-28T15:54:09.743Z,100104.09
2023-01-28T15:56:38.864Z,100099.09
2023-01-28T15:59:17.410Z,100106.06
2023-01-28T16:01:45.648Z,100107.06
2023-01-28T16:04:29.441Z,100102.91
2023-01-28T16:06:59.045Z,100103.69
2023-01-28T16:09:32.642Z,100107.28
2023-01-28T16:12:09.591Z,100120.22
2023-01-28T16:15:19.196Z,100120.00
2023-01-28T16:20:42.295Z,100122.97
2023-01-28T16:23:22.640Z,100124.56
2023-01-28T16:26:04.064Z,100126.56
2023-01-28T16:28:31.754Z,100124.53
2023-01-28T16:31:00.596Z,100128.13
2023-01-28T16:33:28.368Z,100120.78
2023-01-28T16:36:07.695Z,100127.34
2023-01-28T16:38:35.905Z,100124.78
2023-01-28T16:41:03.164Z,100127.34
2023-01-28T16:43:30.895Z,100131.53
2023-01-28T16:45:59.414Z,100133.72
2023-01-28T16:48:27.505Z,100139.25
2023-01-28T16:50:55.200Z,100140.06
2023-01-28T16:53:31.236Z,100140.28
2023-01-28T16:55:58.350Z,100142.66
2023-01-28T16:58:28.609Z,100149.00
2023-01-28T17:00:55.828Z,100149.19
2023-01-28T17:03:23.766Z,100150.78
2023-01-28T17:05:51.555Z,100152.16
2023-01-28T17:08:19.230Z,100157.13
2023-01-28T17:10:46.240Z,100157.13
2023-01-28T17:13:13.162Z,100149.97
2023-01-28T17:15:40.432Z,100152.56
2023-01-28T17:18:10.472Z,100156.56
2023-01-28T17:20:38.144Z,100150.97
2023-01-28T17:23:07.724Z,100158.28
2023-01-28T17:25:39.210Z,100160.50
2023-01-28T17:28:07.274Z,100165.09
2023-01-28T17:30:35.212Z,100158.91
2023-01-28T17:33:04.652Z,100173.63
2023-01-28T17:35:32.071Z,100176.41
2023-01-28T17:38:01.744Z,100176.63
2023-01-28T17:40:28.911Z,100175.84
2023-01-28T17:42:59.985Z,100174.81
2023-01-28T17:45:31.115Z,100179.00
2023-01-28T17:47:58.603Z,100189.34
2023-01-28T17:50:27.497Z,100178.22
2023-01-28T17:52:58.053Z,100187.19
2023-01-28T17:55:26.200Z,100192.38
2023-01-28T17:57:53.382Z,100196.31
2023-01-28T18:00:21.255Z,100199.91
2023-01-28T18:02:51.389Z,100211.44
2023-01-28T18:05:22.022Z,100202.66
2023-01-28T18:08:13.935Z,100214.41
2023-01-28T18:10:46.832Z,100224.97
2023-01-28T18:13:17.163Z,100222.41
2023-01-28T18:15:44.636Z,100218.41
2023-01-28T18:18:36.696Z,100220.97
2023-01-28T18:21:08.805Z,100221.78
2023-01-28T18:23:36.494Z,100220.78
2023-01-28T18:26:04.001Z,100218.78
2023-01-28T18:28:31.852Z,100219.41
2023-01-28T18:31:05.267Z,100215.22
2023-01-28T18:33:36.437Z,100220.38
2023-01-28T18:36:05.691Z,100222.59
2023-01-28T18:38:33.197Z,100223.59
2023-01-28T18:41:26.171Z,100228.97
2023-01-28T18:43:54.504Z,100233.91
2023-01-28T18:46:22.491Z,100233.53
2023-01-28T18:48:50.942Z,100239.47
2023-01-28T18:51:29.987Z,100239.09
2023-01-28T18:54:03.667Z,100238.88
2023-01-28T18:56:32.212Z,100232.50
2023-01-28T18:59:04.962Z,100234.94
2023-01-28T19:01:33.632Z,100239.69
2023-01-28T19:04:01.702Z,100243.66
2023-01-28T19:06:31.973Z,100249.63
2023-01-28T19:09:01.501Z,100250.84
2023-01-28T19:11:30.822Z,100251.03
2023-01-28T19:13:58.858Z,100249.22
2023-01-28T19:16:26.528Z,100257.81
2023-01-28T19:19:03.768Z,100256.81
2023-01-28T19:21:33.102Z,100263.56
2023-01-28T19:24:04.921Z,100255.59
2023-01-28T19:26:33.802Z,100258.00
2023-01-28T19:29:03.045Z,100261.59
2023-01-28T19:31:31.109Z,100265.75
2023-01-28T19:34:01.281Z,100271.72
2023-01-28T19:36:31.556Z,100269.13
2023-01-28T19:39:00.593Z,100275.72
2023-01-28T19:41:29.419Z,100283.47
2023-01-28T19:43:57.783Z,100286.84
2023-01-28T19:46:25.444Z,100286.06
2023-01-28T19:48:53.489Z,100297.19
2023-01-28T19:51:23.024Z,100292.25
2023-01-28T19:53:52.071Z,100295.22
2023-01-28T19:56:20.927Z,100288.84
2023-01-28T19:58:48.717Z,100296.22
2023-01-28T20:01:21.901Z,100297.03
2023-01-28T20:03:55.347Z,100299.00
2023-01-28T20:06:24.563Z,100292.81
2023-01-28T20:08:57.225Z,100302.38
2023-01-28T20:11:49.193Z,100299.00
2023-01-28T20:14:16.952Z,100308.16
2023-01-28T20:16:44.567Z,100303.97
2023-01-28T20:19:18.795Z,100312.53
2023-01-28T20:21:47.560Z,100305.34
2023-01-28T20:24:16.089Z,100310.53
2023-01-28T20:26:44.619Z,100313.13
2023-01-28T20:29:15.223Z,100311.75
2023-01-28T20:32:17.625Z,100306.56
2023-01-28T20:34:46.822Z,100310.13
2023-01-28T20:37:15.121Z,100305.78
2023-01-28T20:39:47.078Z,100309.16
2023-01-28T20:42:19.101Z,100310.34
2023-01-28T20:44:47.837Z,100315.75
2023-01-28T20:47:16.706Z,100314.91
2023-01-28T20:49:46.562Z,100323.28
2023-01-28T20:52:14.996Z,100325.06
2023-01-28T20:54:44.040Z,100325.66
2023-01-28T20:57:11.219Z,100328.25
2023-01-28T20:59:38.756Z,100328.06
2023-01-28T21:02:06.740Z,100333.22
2023-01-28T21:04:34.837Z,100335.22
2023-01-28T21:07:02.414Z,100329.25
2023-01-28T21:09:30.177Z,100334.25
2023-01-28T21:11:57.226Z,100322.88
2023-01-28T21:14:27.425Z,100330.66
2023-01-28T21:16:54.690Z,100331.03
2023-01-28T21:19:23.703Z,100338.97
2023-01-28T21:21:50.946Z,100338.19
2023-01-28T21:24:43.332Z,100334.03
2023-01-28T21:27:11.574Z,100340.19
2023-01-28T21:29:40.155Z,100337.22
2023-01-28T21:32:08.160Z,100348.53
2023-01-28T21:34:35.457Z,100350.94
2023-01-28T21:39:54.870Z,100361.06
2023-01-28T21:42:22.190Z,100363.88
2023-01-28T21:44:49.441Z,100362.28
2023-01-28T21:47:16.761Z,100364.66
2023-01-28T21:49:47.796Z,100370.63
2023-01-28T21:52:15.054Z,100378.00
2023-01-28T21:54:45.747Z,100374.00
2023-01-28T21:57:12.850Z,100379.78
2023-01-28T21:59:40.297Z,100371.63
2023-01-28T22:05:04.834Z,100374.00
2023-01-28T22:07:32.190Z,100375.22
2023-01-28T22:10:00.838Z,100374.22
2023-01-28T22:12:29.299Z,100383.78
2023-01-28T22:14:56.015Z,100383.97
2023-01-28T22:17:48.153Z,100383.38
2023-01-28T22:20:15.433Z,100387.34
2023-01-28T22:22:43.833Z,100393.09
2023-01-28T22:25:10.610Z,100402.25
2023-01-28T22:30:29.413Z,100391.53
2023-01-28T22:32:56.203Z,100389.13
2023-01-28T22:35:23.076Z,100395.50
2023-01-28T22:37:49.928Z,100387.75
2023-01-28T22:40:17.337Z,100392.53
2023-01-28T22:42:44.576Z,100387.16
2023-01-28T22:45:11.897Z,100392.53
2023-01-28T22:47:38.749Z,100389.16
2023-01-28T22:50:06.382Z,100396.91
2023-01-28T22:52:35.759Z,100390.72
2023-01-28T22:55:02.987Z,100384.56
2023-01-28T22:57:31.737Z,100389.72
2023-01-28T23:00:00.664Z,100383.97
2023-01-28T23:02:31.267Z,100381.19
2023-01-28T23:07:49.322Z,100384.56
2023-01-28T23:10:16.432Z,100381.19
2023-01-28T23:12:45.581Z,100386.34
2023-01-28T23:15:13.740Z,100378.97
2023-01-28T23:17:41.274Z,100380.16
2023-01-28T23:20:10.473Z,100376.63
2023-01-28T23:22:38.523Z,100374.81
2023-01-28T23:25:06.653Z,100381.78
2023-01-28T23:27:34.450Z,100381.78
2023-01-28T23:30:02.790Z,100385.75
2023-01-28T23:32:29.921Z,100381.97
2023-01-28T23:34:56.652Z,100378.00
2023-01-28T23:37:25.352Z,100384.94
2023-01-28T23:39:52.114Z,100385.75
2023-01-28T23:42:21.504Z,100385.75
2023-01-28T23:44:48.382Z,100384.38
2023-01-28T23:47:16.369Z,100388.34
2023-01-28T23:49:43.898Z,100386.56
2023-01-28T23:52:11.433Z,100382.19
2023-01-28T23:54:38.310Z,100384.97
2023-01-28T23:57:05.449Z,100387.53
2023-01-28T23:59:32.778Z,100385.53
